Niagara-On-The-Lake, Canada
Current Conditions -  °F | °C
As of 1:00 PM on Thursday 23 Oct 2014 (Local Time) from CYSN Reporting Station
Few Clouds Few Clouds  
Wind Chill: 55°   Ceiling: Unl
Heat Index: 55°   Visibility: 15mi
Dew Point: 41°   Wind: 9mph
Humidity: 58%   Direction: 310°NW
Pressure: 30.11"   Gusts: NA
Location:  43.25°N, 79.07°W
Report Text: CYSN 231700Z 31008KT 15SM FEW240 13/05 A3011 RMK CI1 CI TR SLP197
Loading
Personal Weather Stations






























Interactive Weather Map
Tropical Storm Tracking
New forecast layout! Learn more

10-Day Weather Forecast

Advertisements
Track Severe Weather on mobile